Time;durP1;ratioP1;P1;durP2;ratioP2;P2;SDS_P1;SDS_P2;PMS_P1;PMS_P2;Temp;Humidity;BMP_temperature;BMP_pressure;BME280_temperature;BME280_humidity;BME280_pressure;Samples;Min_cycle;Max_cycle;Signal;HPM_P1;HPM_P2
2023/09/29 00:00:49;;;;;;;8.23;5.13;;;;;;;14.23;100.00;93196.84;5011851;28;20040;-83
2023/09/29 00:03:15;;;;;;;10.05;5.93;;;;;;;14.19;100.00;93191.41;5035456;28;20044;-85
2023/09/29 00:05:45;;;;;;;9.60;5.50;;;;;;;14.14;100.00;93184.38;5024060;28;20064;-84
2023/09/29 00:08:16;;;;;;;9.15;4.88;;;;;;;14.20;100.00;93189.53;5008935;28;20041;-84
2023/09/29 00:10:45;;;;;;;8.40;5.22;;;;;;;14.18;100.00;93187.19;5022070;28;20030;-87
2023/09/29 00:13:14;;;;;;;10.30;5.43;;;;;;;14.10;100.00;93177.34;5015564;28;20034;-86
2023/09/29 00:15:39;;;;;;;8.68;5.20;;;;;;;14.16;100.00;93191.94;5030374;28;20470;-86
2023/09/29 00:18:07;;;;;;;8.00;4.57;;;;;;;14.15;100.00;93187.78;5014852;28;20034;-85
2023/09/29 00:20:33;;;;;;;7.68;5.00;;;;;;;14.13;100.00;93182.00;5013250;28;20481;-86
2023/09/29 00:23:00;;;;;;;8.38;4.85;;;;;;;14.12;100.00;93188.38;5017372;28;20061;-86
2023/09/29 00:25:26;;;;;;;10.35;4.90;;;;;;;14.11;100.00;93186.78;5017210;28;20187;-86
2023/09/29 00:27:52;;;;;;;8.70;5.00;;;;;;;14.12;100.00;93188.38;5014732;28;20054;-84
2023/09/29 00:30:19;;;;;;;7.72;5.10;;;;;;;14.14;100.00;93191.50;5025159;28;20359;-85
2023/09/29 00:32:46;;;;;;;11.80;4.85;;;;;;;14.13;100.00;93184.66;5014956;28;20041;-85
2023/09/29 00:35:18;;;;;;;7.00;5.10;;;;;;;14.09;100.00;93181.03;5021875;28;20038;-83
2023/09/29 00:37:44;;;;;;;;;;;;;;;14.13;100.00;93192.53;5012372;28;20072;-84
2023/09/29 00:40:12;;;;;;;9.93;5.40;;;;;;;14.07;100.00;93175.28;5033896;28;19913;-85
2023/09/29 00:42:39;;;;;;;9.48;5.40;;;;;;;14.10;100.00;93177.34;5023863;28;20044;-84
2023/09/29 00:45:06;;;;;;;8.40;5.00;;;;;;;14.08;100.00;93174.22;5035822;28;20036;-85
2023/09/29 00:47:32;;;;;;;14.05;6.05;;;;;;;14.05;100.00;93180.03;5032204;28;20137;-84
2023/09/29 00:49:58;;;;;;;8.77;5.47;;;;;;;14.04;100.00;93175.84;5026537;28;20034;-84
2023/09/29 00:52:27;;;;;;;8.75;5.10;;;;;;;14.03;100.00;93179.56;5022610;28;20505;-85
2023/09/29 00:54:53;;;;;;;8.77;5.38;;;;;;;14.00;100.00;93173.00;5018361;28;20458;-85
2023/09/29 00:57:20;;;;;;;8.38;5.43;;;;;;;13.94;100.00;93158.41;5021591;28;20029;-84
2023/09/29 00:59:46;;;;;;;9.02;5.45;;;;;;;14.00;100.00;93170.38;5022361;28;20034;-84
2023/09/29 01:02:14;;;;;;;11.80;5.57;;;;;;;13.94;100.00;93167.06;5023968;28;20042;-87
2023/09/29 01:04:41;;;;;;;8.45;5.20;;;;;;;13.98;100.00;93174.38;5017524;28;20032;-86
2023/09/29 01:07:07;;;;;;;8.45;5.80;;;;;;;13.95;100.00;93171.25;5019129;28;20042;-84
2023/09/29 01:09:33;;;;;;;9.15;5.45;;;;;;;13.91;100.00;93162.38;5018062;28;20033;-85
2023/09/29 01:12:04;;;;;;;7.93;5.30;;;;;;;13.94;100.00;93169.72;5015544;28;20046;-86
2023/09/29 01:14:30;;;;;;;9.63;5.28;;;;;;;13.91;100.00;93165.00;5035910;28;20045;-85
2023/09/29 01:16:56;;;;;;;8.98;5.18;;;;;;;13.93;100.00;93175.25;5020132;28;20041;-84
2023/09/29 01:19:21;;;;;;;10.73;5.25;;;;;;;13.92;100.00;93177.09;5023804;28;20037;-85
2023/09/29 01:21:47;;;;;;;13.88;5.25;;;;;;;13.89;100.00;93169.00;5022202;28;20033;-85
2023/09/29 01:24:15;;;;;;;9.27;5.07;;;;;;;13.92;100.00;93165.81;5036261;28;20044;-85
2023/09/29 01:26:44;;;;;;;10.05;6.20;;;;;;;13.89;100.00;93161.91;5011212;28;20125;-83
2023/09/29 01:29:11;;;;;;;8.88;5.00;;;;;;;13.89;100.00;93169.81;5017644;28;20062;-85
2023/09/29 01:31:37;;;;;;;11.32;5.32;;;;;;;13.86;100.00;93164.31;5021457;28;20033;-86
2023/09/29 01:34:04;;;;;;;7.40;4.97;;;;;;;13.91;100.00;93164.22;5028590;28;20049;-86
2023/09/29 01:36:30;;;;;;;10.25;5.57;;;;;;;13.89;100.00;93169.00;5018041;28;20034;-84
2023/09/29 01:38:56;;;;;;;9.63;5.45;;;;;;;13.89;100.00;93164.53;5027598;28;20353;-84
2023/09/29 01:41:21;;;;;;;11.10;5.40;;;;;;;13.86;100.00;93172.22;5015456;28;20033;-85
2023/09/29 01:43:47;;;;;;;12.75;5.32;;;;;;;13.84;100.00;93164.59;4997290;28;20038;-83
2023/09/29 01:46:15;;;;;;;10.88;5.28;;;;;;;13.82;100.00;93166.75;5020981;28;20048;-85
2023/09/29 01:48:44;;;;;;;7.80;5.03;;;;;;;13.77;100.00;93169.47;5023289;28;20125;-86
2023/09/29 01:51:11;;;;;;;10.90;5.38;;;;;;;13.76;100.00;93167.91;5017234;28;20069;-86
2023/09/29 01:53:37;;;;;;;11.75;5.47;;;;;;;13.71;100.00;93160.09;5022639;28;20489;-84
2023/09/29 01:56:03;;;;;;;9.32;5.53;;;;;;;13.75;100.00;93171.59;5022211;28;20029;-85
2023/09/29 01:58:31;;;;;;;11.07;4.90;;;;;;;13.76;100.00;93167.91;5026985;28;20043;-85
2023/09/29 02:00:56;;;;;;;8.75;5.15;;;;;;;13.75;100.00;93166.34;5000426;28;20053;-86
2023/09/29 02:03:22;;;;;;;7.97;5.00;;;;;;;13.71;100.00;93160.88;5018902;28;20053;-84
2023/09/29 02:05:47;;;;;;;8.93;5.20;;;;;;;13.73;100.00;93168.47;5000777;28;20038;-84
2023/09/29 02:08:13;;;;;;;13.10;5.55;;;;;;;13.69;100.00;93165.66;5026572;28;20049;-83
2023/09/29 02:10:39;;;;;;;10.70;5.40;;;;;;;13.69;100.00;93164.84;5032145;28;20048;-83
2023/09/29 02:13:05;;;;;;;9.55;5.25;;;;;;;13.66;100.00;93166.22;5026836;28;20501;-84
2023/09/29 02:15:34;;;;;;;12.73;5.40;;;;;;;13.65;100.00;93161.25;5020235;28;20025;-84
2023/09/29 02:18:04;;;;;;;11.75;5.25;;;;;;;13.64;100.00;93164.94;5018644;28;20088;-86
2023/09/29 02:20:30;;;;;;;8.57;5.07;;;;;;;13.63;100.00;93163.41;5023686;28;20080;-85
2023/09/29 02:23:00;;;;;;;7.70;5.10;;;;;;;13.62;100.00;93161.81;5024136;28;20041;-85
2023/09/29 02:25:26;;;;;;;9.50;5.60;;;;;;;13.58;100.00;93153.75;5015850;28;20038;-82
2023/09/29 02:27:57;;;;;;;8.13;5.15;;;;;;;13.59;100.00;93159.78;5020686;28;20060;-85
2023/09/29 02:30:24;;;;;;;8.18;5.07;;;;;;;13.54;100.00;93150.88;5014363;28;20030;-84
2023/09/29 02:32:53;;;;;;;10.20;5.35;;;;;;;13.56;100.00;93149.84;4999731;28;20030;-83
2023/09/29 02:35:19;;;;;;;10.15;4.70;;;;;;;13.55;100.00;93156.91;5016880;28;20041;-86
2023/09/29 02:37:46;;;;;;;10.68;5.15;;;;;;;13.55;100.00;93162.19;5024088;28;20049;-86
2023/09/29 02:40:12;;;;;;;6.93;4.45;;;;;;;13.56;100.00;93152.47;5024762;28;20042;-85
2023/09/29 02:42:39;;;;;;;10.73;4.53;;;;;;;13.57;100.00;93161.91;5021929;28;20038;-86
2023/09/29 02:45:06;;;;;;;9.55;5.05;;;;;;;13.57;100.00;93154.00;5023150;28;20033;-84
2023/09/29 02:47:32;;;;;;;9.75;4.70;;;;;;;13.56;100.00;93155.88;5016220;28;20433;-86
2023/09/29 02:49:58;;;;;;;7.00;4.72;;;;;;;13.58;100.00;93161.63;5015407;28;20041;-86
2023/09/29 02:52:26;;;;;;;11.93;5.10;;;;;;;13.59;100.00;93152.66;5016489;28;20028;-86
2023/09/29 02:54:54;;;;;;;10.27;5.05;;;;;;;13.56;100.00;93158.50;5017952;28;20092;-83
2023/09/29 02:57:21;;;;;;;10.57;4.95;;;;;;;13.54;100.00;93150.13;5014824;28;20495;-84
2023/09/29 02:59:47;;;;;;;11.23;5.57;;;;;;;13.53;100.00;93154.59;5024216;28;20045;-85
2023/09/29 03:02:12;;;;;;;7.65;4.70;;;;;;;13.57;100.00;93154.00;5021385;28;20159;-85
2023/09/29 03:04:39;;;;;;;13.20;4.78;;;;;;;13.51;100.00;93154.09;5022831;28;20493;-85
2023/09/29 03:07:09;;;;;;;12.43;5.28;;;;;;;13.53;100.00;93154.59;5024030;28;20483;-83
2023/09/29 03:09:35;;;;;;;10.23;5.10;;;;;;;13.47;100.00;93152.34;4998093;28;20084;-83
2023/09/29 03:12:01;;;;;;;8.85;4.97;;;;;;;13.53;100.00;93151.97;5030666;28;20467;-83
2023/09/29 03:14:27;;;;;;;8.45;5.70;;;;;;;13.53;100.00;93148.53;5021289;28;20049;-85
2023/09/29 03:16:58;;;;;;;9.20;5.00;;;;;;;13.54;100.00;93158.78;5030954;28;20024;-86
2023/09/29 03:19:26;;;;;;;8.95;4.80;;;;;;;13.51;100.00;93161.22;5009656;28;20097;-83
2023/09/29 03:21:52;;;;;;;8.93;5.05;;;;;;;13.50;100.00;93159.66;5023509;28;20489;-86
2023/09/29 03:24:18;;;;;;;10.70;4.90;;;;;;;13.49;100.00;93160.72;5022904;28;20042;-86
2023/09/29 03:26:44;;;;;;;10.43;5.18;;;;;;;13.46;100.00;93156.03;5028491;28;20078;-84
2023/09/29 03:29:11;;;;;;;11.05;5.13;;;;;;;13.43;100.00;93162.63;5030573;28;20053;-86
2023/09/29 03:31:36;;;;;;;8.55;5.13;;;;;;;13.36;100.00;93153.56;5020546;28;20041;-84
2023/09/29 03:34:02;;;;;;;6.32;4.75;;;;;;;13.36;100.00;93154.34;5017754;28;20037;-85
2023/09/29 03:36:30;;;;;;;9.00;5.15;;;;;;;13.28;100.00;93144.47;5031597;28;20026;-86
2023/09/29 03:38:56;;;;;;;9.60;5.18;;;;;;;13.31;100.00;93152.56;5024227;28;20033;-87
2023/09/29 03:41:23;;;;;;;9.65;5.20;;;;;;;13.27;100.00;93146.28;5009891;28;20076;-86
2023/09/29 03:43:50;;;;;;;10.40;5.63;;;;;;;13.27;100.00;93150.78;4998379;28;20501;-85
2023/09/29 03:46:20;;;;;;;9.20;5.38;;;;;;;13.27;100.00;93145.50;4999873;28;20056;-86
2023/09/29 03:48:47;;;;;;;8.32;5.40;;;;;;;13.21;100.00;93142.16;5032429;28;20524;-85
2023/09/29 03:51:25;;;;;;;10.38;5.43;;;;;;;13.20;100.00;93145.09;5007552;28;20026;-85
2023/09/29 03:53:53;;;;;;;7.88;5.28;;;;;;;13.16;100.00;93150.13;5023348;28;20034;-82
2023/09/29 03:56:22;;;;;;;9.90;5.32;;;;;;;13.16;100.00;93144.09;5023438;28;20036;-81
2023/09/29 03:58:49;;;;;;;8.90;5.25;;;;;;;13.13;100.00;93146.22;5012475;28;20022;-85
2023/09/29 04:01:15;;;;;;;7.82;5.13;;;;;;;13.10;100.00;93136.28;5026114;28;20032;-85
2023/09/29 04:03:41;;;;;;;10.95;5.20;;;;;;;13.12;100.00;93142.03;5035055;28;20037;-85
2023/09/29 04:06:06;;;;;;;13.18;6.28;;;;;;;13.10;100.00;93143.38;5023052;28;20036;-84
2023/09/29 04:08:32;;;;;;;11.63;5.50;;;;;;;13.07;100.00;93142.09;5028442;28;20133;-85
2023/09/29 04:10:58;;;;;;;9.52;5.55;;;;;;;13.08;100.00;93146.31;5019752;28;20468;-86
2023/09/29 04:13:24;;;;;;;8.75;5.43;;;;;;;13.09;100.00;93147.09;5027577;28;20053;-85
2023/09/29 04:15:51;;;;;;;15.68;9.45;;;;;;;13.05;100.00;93144.22;5028751;28;20110;-84
2023/09/29 04:18:16;;;;;;;16.52;8.60;;;;;;;13.08;100.00;93148.94;5037767;28;20552;-86
2023/09/29 04:20:42;;;;;;;13.27;6.63;;;;;;;13.04;100.00;93144.53;5004156;28;20036;-86
2023/09/29 04:23:07;;;;;;;10.90;6.00;;;;;;;13.01;100.00;93135.34;5012256;28;20121;-84
2023/09/29 04:25:33;;;;;;;7.15;5.10;;;;;;;13.03;100.00;93137.69;5019853;28;20121;-83
2023/09/29 04:27:59;;;;;;;10.05;5.93;;;;;;;13.02;100.00;93144.81;4996402;28;20073;-85
2023/09/29 04:30:25;;;;;;;11.30;4.80;;;;;;;13.04;100.00;93141.91;5028796;28;20038;-85
2023/09/29 04:32:52;;;;;;;8.50;4.70;;;;;;;13.04;100.00;93145.31;5041128;28;20053;-84
2023/09/29 04:35:18;;;;;;;9.55;4.70;;;;;;;13.04;100.00;93147.94;5032889;28;20049;-86
2023/09/29 04:37:45;;;;;;;9.27;5.20;;;;;;;13.04;100.00;93147.16;5024002;28;20052;-82
2023/09/29 04:40:11;;;;;;;11.38;5.18;;;;;;;13.01;100.00;93148.50;5037733;28;20045;-86
2023/09/29 04:42:38;;;;;;;7.78;5.18;;;;;;;12.99;100.00;93145.38;5033520;28;20112;-85
2023/09/29 04:45:06;;;;;;;11.50;4.85;;;;;;;12.94;100.00;93137.56;5027553;28;20045;-82
2023/09/29 04:47:32;;;;;;;7.88;4.88;;;;;;;12.92;100.00;93137.06;5024776;28;20046;-83
2023/09/29 04:49:58;;;;;;;10.00;5.15;;;;;;;12.96;100.00;93145.16;5033036;28;20030;-81
2023/09/29 04:52:27;;;;;;;7.45;4.85;;;;;;;12.96;100.00;93139.91;5032923;28;20059;-81
2023/09/29 04:54:53;;;;;;;12.07;5.22;;;;;;;12.94;100.00;93142.03;5026720;28;20080;-80
2023/09/29 04:57:19;;;;;;;7.28;4.72;;;;;;;12.93;100.00;93140.50;5030649;28;20026;-77
2023/09/29 04:59:45;;;;;;;12.82;5.03;;;;;;;12.88;100.00;93136.88;5004106;28;20552;-80
2023/09/29 05:02:11;;;;;;;9.13;5.43;;;;;;;12.91;100.00;93148.66;5021237;28;20038;-79
2023/09/29 05:04:36;;;;;;;8.65;4.85;;;;;;;12.88;100.00;93149.22;5022248;28;20041;-83
2023/09/29 05:07:02;;;;;;;11.45;5.25;;;;;;;12.86;100.00;93144.25;5018280;28;21257;-81
2023/09/29 05:09:28;;;;;;;10.30;5.40;;;;;;;12.86;100.00;93146.09;5036752;28;20022;-81
2023/09/29 05:11:53;;;;;;;8.20;5.50;;;;;;;12.87;100.00;93150.28;5040465;28;20030;-82
2023/09/29 05:14:19;;;;;;;10.88;4.90;;;;;;;12.87;100.00;93150.28;5046151;28;20040;-82
2023/09/29 05:16:45;;;;;;;13.98;5.07;;;;;;;12.88;100.00;93149.22;5029485;28;20096;-82
2023/09/29 05:19:10;;;;;;;10.15;5.20;;;;;;;12.89;100.00;93146.28;5030031;28;20490;-81
2023/09/29 05:21:36;;;;;;;8.45;5.10;;;;;;;12.89;100.00;93154.19;5023625;28;20041;-82
2023/09/29 05:24:02;;;;;;;11.52;4.93;;;;;;;12.91;100.00;93154.69;5037360;28;20555;-81
2023/09/29 05:26:28;;;;;;;9.10;5.25;;;;;;;12.90;100.00;93147.88;5017907;28;20065;-81
2023/09/29 05:28:55;;;;;;;11.25;5.18;;;;;;;12.89;100.00;93150.78;5017771;28;20413;-81
2023/09/29 05:31:22;;;;;;;8.40;5.10;;;;;;;12.88;100.00;93157.88;5027559;28;20049;-81
2023/09/29 05:33:48;;;;;;;10.90;4.80;;;;;;;12.87;100.00;93158.94;5019908;28;20516;-80
2023/09/29 05:36:14;;;;;;;7.38;4.47;;;;;;;12.88;100.00;93154.47;5036697;28;20042;-83
2023/09/29 05:38:40;;;;;;;8.85;5.07;;;;;;;12.90;100.00;93163.63;5027978;28;20555;-79
2023/09/29 05:41:06;;;;;;;10.00;5.15;;;;;;;12.95;100.00;93164.59;5019089;28;20042;-79
2023/09/29 05:43:31;;;;;;;7.78;4.97;;;;;;;12.99;100.00;93160.34;5024450;28;20489;-79
2023/09/29 05:45:58;;;;;;;17.67;5.35;;;;;;;13.16;100.00;93165.91;5017763;28;20414;-80
2023/09/29 05:48:23;;;;;;;8.13;5.10;;;;;;;13.59;100.00;93165.03;5025979;28;20038;-80
2023/09/29 05:50:50;;;;;;;7.80;4.80;;;;;;;13.89;100.00;93172.44;5032638;28;20067;-80
2023/09/29 05:53:16;;;;;;;8.60;5.10;;;;;;;14.11;100.00;93166.50;5022436;28;20624;-79
2023/09/29 05:55:41;;;;;;;6.85;4.85;;;;;;;14.30;100.00;93169.06;5018497;28;20038;-79
2023/09/29 05:58:07;;;;;;;10.93;4.60;;;;;;;14.42;100.00;93173.06;5017604;28;20477;-79
2023/09/29 06:00:33;;;;;;;15.07;5.35;;;;;;;14.56;100.00;93163.34;5019530;28;20068;-80
2023/09/29 06:02:59;;;;;;;8.43;4.88;;;;;;;14.85;100.00;93170.13;5019932;28;20545;-80
2023/09/29 06:05:25;;;;;;;9.23;4.70;;;;;;;15.26;100.00;93167.41;5019000;28;20061;-78
2023/09/29 06:07:51;;;;;;;8.57;4.65;;;;;;;15.92;100.00;93175.66;5017729;28;20386;-79
2023/09/29 06:10:16;;;;;;;6.75;4.70;;;;;;;16.63;100.00;93178.28;5018277;28;20029;-80
2023/09/29 06:12:42;;;;;;;12.43;4.60;;;;;;;17.26;100.00;93168.31;5029878;28;20042;-79
2023/09/29 06:15:09;;;;;;;8.70;4.25;;;;;;;18.05;100.00;93177.00;5031555;28;20034;-78
2023/09/29 06:17:35;;;;;;;12.95;4.25;;;;;;;18.72;100.00;93182.69;5015917;28;21510;-80
2023/09/29 06:20:01;;;;;;;8.13;4.10;;;;;;;19.29;100.00;93187.53;5016692;28;20026;-80
2023/09/29 06:22:26;;;;;;;9.20;4.00;;;;;;;19.80;100.00;93181.41;5018873;28;20034;-82
2023/09/29 06:24:52;;;;;;;6.15;4.20;;;;;;;20.33;100.00;93188.53;5021601;28;20109;-80
2023/09/29 06:27:18;;;;;;;9.27;3.90;;;;;;;20.93;100.00;93191.59;5014709;28;20025;-81
2023/09/29 06:29:50;;;;;;;11.27;4.22;;;;;;;21.34;100.00;93200.41;5019711;28;20046;-78
2023/09/29 06:32:16;;;;;;;7.20;3.90;;;;;;;21.74;100.00;93205.00;5020123;28;20046;-81
2023/09/29 06:34:42;;;;;;;6.40;3.88;;;;;;;22.41;100.00;93209.88;5014464;28;20105;-81
2023/09/29 06:37:09;;;;;;;6.43;3.95;;;;;;;22.84;100.00;93214.38;5018360;28;20130;-81
2023/09/29 06:39:35;;;;;;;6.72;4.28;;;;;;;23.24;100.00;93209.97;5015713;28;20034;-81
2023/09/29 06:42:01;;;;;;;8.82;4.03;;;;;;;23.61;100.00;93215.72;5017736;28;20092;-81
2023/09/29 06:44:27;;;;;;;9.88;4.15;;;;;;;23.99;100.00;93216.13;5022981;28;20033;-82
2023/09/29 06:46:53;;;;;;;7.47;4.00;;;;;;;24.30;100.00;93217.88;5017555;28;20521;-82
2023/09/29 06:49:18;;;;;;;9.60;4.35;;;;;;;25.16;96.88;93229.28;5036906;28;20029;-80
2023/09/29 06:51:44;;;;;;;10.10;4.50;;;;;;;25.11;95.60;93225.75;5011135;28;20030;-81
2023/09/29 06:54:10;;;;;;;6.45;4.20;;;;;;;25.11;96.44;93231.13;5025623;28;20017;-80
2023/09/29 06:56:36;;;;;;;9.13;4.28;;;;;;;24.79;95.35;93225.25;5017797;28;20325;-82
2023/09/29 06:59:02;;;;;;;15.35;5.05;;;;;;;24.84;97.92;93226.84;5016891;28;20030;-82
2023/09/29 07:01:27;;;;;;;9.75;4.22;;;;;;;24.83;92.25;93225.28;5019090;28;20121;-82
2023/09/29 07:03:54;;;;;;;10.00;4.25;;;;;;;24.62;92.81;93223.03;5022965;28;20038;-82
2023/09/29 07:06:24;;;;;;;7.93;4.40;;;;;;;24.48;92.77;93228.94;5024304;28;20133;-83
2023/09/29 07:08:50;;;;;;;9.20;4.43;;;;;;;24.15;94.68;93216.81;5017752;28;20046;-81
2023/09/29 07:11:16;;;;;;;10.70;4.90;;;;;;;23.95;100.00;93212.59;5012176;28;20046;-82
2023/09/29 07:13:42;;;;;;;9.32;4.05;;;;;;;23.84;100.00;93217.72;5026215;28;20040;-82
2023/09/29 07:16:07;;;;;;;8.30;4.28;;;;;;;23.45;100.00;93225.69;5019277;28;20049;-81
2023/09/29 07:18:33;;;;;;;10.35;4.57;;;;;;;23.54;100.00;93222.81;5016834;28;20049;-82
2023/09/29 07:20:59;;;;;;;11.60;5.13;;;;;;;23.07;100.00;93230.56;5018739;28;20053;-82
2023/09/29 07:23:25;;;;;;;8.68;4.40;;;;;;;22.95;100.00;93227.97;5016913;28;20445;-81
2023/09/29 07:25:52;;;;;;;9.05;4.30;;;;;;;23.02;100.00;93232.72;5012101;28;20030;-86
2023/09/29 07:28:19;;;;;;;6.35;3.83;;;;;;;22.43;100.00;93223.66;5013972;28;20402;-86
2023/09/29 07:30:45;;;;;;;11.75;4.57;;;;;;;21.65;100.00;93216.94;5003187;28;20037;-86
2023/09/29 07:33:11;;;;;;;10.10;4.80;;;;;;;21.21;100.00;93217.53;5011697;28;20132;-85
2023/09/29 07:35:37;;;;;;;9.30;4.60;;;;;;;21.40;100.00;93231.06;5011410;28;20258;-85
2023/09/29 07:38:04;;;;;;;8.65;4.72;;;;;;;21.65;100.00;93228.34;5012638;28;20058;-85
2023/09/29 07:40:30;;;;;;;10.27;4.57;;;;;;;21.65;100.00;93233.69;5008098;28;20402;-86
2023/09/29 07:42:57;;;;;;;10.65;4.40;;;;;;;22.08;100.00;93234.09;5014650;28;20482;-85
2023/09/29 07:45:23;;;;;;;7.57;4.60;;;;;;;22.15;100.00;93240.41;5012022;28;20058;-85
2023/09/29 07:47:49;;;;;;;9.00;4.93;;;;;;;22.34;100.00;93239.81;5011063;28;20065;-86
2023/09/29 07:50:14;;;;;;;11.18;4.50;;;;;;;22.08;100.00;93237.53;5019226;28;20030;-86
2023/09/29 07:52:40;;;;;;;9.95;5.05;;;;;;;21.63;100.00;93226.03;5018980;28;20045;-85
2023/09/29 07:55:09;;;;;;;14.57;5.03;;;;;;;20.98;100.00;93233.19;5019924;28;20041;-85
2023/09/29 07:57:35;;;;;;;13.38;5.53;;;;;;;20.53;100.00;93237.41;5016398;28;20063;-85
2023/09/29 08:00:03;;;;;;;10.10;4.82;;;;;;;21.09;100.00;93230.84;4995075;28;20417;-85
2023/09/29 08:02:37;;;;;;;10.13;5.00;;;;;;;21.75;100.00;93233.22;5021101;28;20045;-85
2023/09/29 08:05:03;;;;;;;8.93;4.53;;;;;;;22.01;100.00;93229.34;5013041;28;20040;-85
2023/09/29 08:07:28;;;;;;;9.68;4.85;;;;;;;21.66;100.00;93239.78;4994587;28;20072;-86
2023/09/29 08:09:54;;;;;;;12.18;4.88;;;;;;;21.23;100.00;93239.25;5027667;28;20524;-86
2023/09/29 08:12:20;;;;;;;9.73;4.60;;;;;;;21.24;100.00;93235.50;5014265;28;20052;-85
2023/09/29 08:14:45;;;;;;;9.77;5.20;;;;;;;21.32;100.00;93242.59;5016546;28;20052;-85
2023/09/29 08:17:11;;;;;;;14.07;5.20;;;;;;;21.00;100.00;93242.38;5015040;28;20037;-85
2023/09/29 08:19:37;;;;;;;8.48;4.70;;;;;;;20.97;100.00;93237.72;5023583;28;20488;-85
2023/09/29 08:22:02;;;;;;;9.07;4.97;;;;;;;20.75;100.00;93246.13;5011715;28;20121;-85
2023/09/29 08:24:30;;;;;;;10.90;4.97;;;;;;;20.73;100.00;93240.38;5012009;28;20390;-85
2023/09/29 08:26:56;;;;;;;9.63;4.88;;;;;;;20.81;100.00;93244.81;5026384;28;20037;-85
2023/09/29 08:29:22;;;;;;;8.65;4.43;;;;;;;21.02;100.00;93235.97;5010983;28;20054;-84
2023/09/29 08:31:48;;;;;;;9.27;4.65;;;;;;;20.98;100.00;93244.63;4970227;28;20045;-85
2023/09/29 08:34:13;;;;;;;8.23;4.35;;;;;;;20.90;100.00;93248.16;4978923;28;20045;-85
2023/09/29 08:36:39;;;;;;;8.20;4.82;;;;;;;20.99;100.00;93243.50;5018549;28;20084;-85
2023/09/29 08:39:06;;;;;;;6.95;4.50;;;;;;;20.85;100.00;93245.72;5030148;28;20072;-84
2023/09/29 08:41:34;;;;;;;8.70;4.65;;;;;;;20.76;100.00;93242.34;5030470;28;20052;-80
2023/09/29 08:44:02;;;;;;;8.75;4.47;;;;;;;20.68;100.00;93229.94;5016015;28;20045;-80
2023/09/29 08:46:28;;;;;;;10.25;4.47;;;;;;;20.88;100.00;93253.03;5015498;28;20097;-82
2023/09/29 08:48:55;;;;;;;10.38;4.75;;;;;;;21.00;100.00;93258.34;5014132;28;20041;-82
2023/09/29 08:51:22;;;;;;;10.93;4.97;;;;;;;20.86;100.00;93252.56;5013814;28;20097;-82
2023/09/29 08:53:50;;;;;;;8.10;4.05;;;;;;;21.08;100.00;93255.94;5015836;28;20065;-82
2023/09/29 08:56:16;;;;;;;7.38;4.30;;;;;;;21.03;100.00;93256.13;5047339;28;20057;-81
2023/09/29 08:58:42;;;;;;;6.88;4.88;;;;;;;21.23;100.00;93260.56;5016478;28;20128;-82
2023/09/29 09:01:09;;;;;;;7.50;4.85;;;;;;;20.78;100.00;93261.44;5019896;28;20233;-82
2023/09/29 09:03:34;;;;;;;12.02;5.07;;;;;;;20.91;100.00;93260.34;5019120;28;20088;-81
2023/09/29 09:06:01;;;;;;;11.20;4.93;;;;;;;20.77;100.00;93265.22;5017277;28;20486;-81
2023/09/29 09:08:27;;;;;;;9.80;5.18;;;;;;;20.82;100.00;93262.31;5019351;28;20033;-82
2023/09/29 09:11:03;;;;;;;8.07;5.10;;;;;;;20.87;100.00;93264.75;5019519;28;20052;-82
2023/09/29 09:13:28;;;;;;;6.70;4.57;;;;;;;20.91;100.00;93259.56;5020044;28;20033;-81
2023/09/29 09:15:55;;;;;;;7.25;4.72;;;;;;;20.84;100.00;93268.09;5019736;28;20048;-82
2023/09/29 09:18:21;;;;;;;7.32;4.40;;;;;;;21.04;100.00;93269.13;5018034;28;20030;-81
2023/09/29 09:20:53;;;;;;;7.63;4.47;;;;;;;21.07;100.00;93268.44;5018155;28;20439;-81
2023/09/29 09:23:19;;;;;;;9.70;4.80;;;;;;;21.21;100.00;93252.16;5019076;28;20034;-80
2023/09/29 09:25:45;;;;;;;8.98;4.95;;;;;;;21.67;100.00;93268.75;5019058;28;20085;-80
2023/09/29 09:28:32;;;;;;;9.07;4.65;;;;;;;21.94;100.00;93250.50;5018320;28;20057;-81
2023/09/29 09:31:03;;;;;;;9.27;4.93;;;;;;;22.00;100.00;93259.81;5019732;28;20057;-82
2023/09/29 09:33:31;;;;;;;13.57;4.82;;;;;;;21.69;100.00;93268.44;5019692;28;20050;-82
2023/09/29 09:36:09;;;;;;;16.35;5.32;;;;;;;21.39;100.00;93264.13;5018376;28;20104;-82
2023/09/29 09:38:36;;;;;;;10.90;5.60;;;;;;;21.42;100.00;93262.69;5019440;28;20037;-81
2023/09/29 09:41:02;;;;;;;12.23;5.65;;;;;;;21.63;100.00;93267.88;5019794;28;20036;-82
2023/09/29 09:43:29;;;;;;;10.10;5.75;;;;;;;21.76;100.00;93261.41;5018753;28;20101;-82
2023/09/29 09:46:03;;;;;;;9.93;5.40;;;;;;;21.83;100.00;93274.94;5019023;28;20034;-82
2023/09/29 09:48:39;;;;;;;12.43;4.90;;;;;;;22.03;100.00;93269.78;5017560;28;20034;-81
2023/09/29 09:51:07;;;;;;;10.75;5.40;;;;;;;21.79;100.00;93263.41;5018993;28;20068;-81
2023/09/29 09:53:37;;;;;;;10.20;5.32;;;;;;;21.70;100.00;93267.31;5020087;28;20060;-82
2023/09/29 09:56:20;;;;;;;8.98;4.72;;;;;;;21.33;100.00;93262.78;5020014;28;20046;-81
2023/09/29 09:58:49;;;;;;;9.27;4.78;;;;;;;21.54;100.00;93265.34;5020281;28;20037;-81
2023/09/29 10:01:15;;;;;;;7.38;4.57;;;;;;;21.58;100.00;93265.44;5018693;28;20045;-82
2023/09/29 10:03:41;;;;;;;9.50;4.45;;;;;;;21.44;100.00;93249.06;5019821;28;20596;-81
2023/09/29 10:06:09;;;;;;;6.95;5.00;;;;;;;21.25;100.00;93257.56;5019338;28;20053;-81
2023/09/29 10:08:34;;;;;;;9.18;4.70;;;;;;;21.13;100.00;93255.69;5018874;28;20045;-81
2023/09/29 10:11:26;;;;;;;9.07;5.10;;;;;;;21.14;100.00;93258.03;5018170;28;20029;-82
2023/09/29 10:14:08;;;;;;;10.98;5.03;;;;;;;21.36;100.00;93254.13;5014617;28;20034;-80
2023/09/29 10:16:35;;;;;;;10.38;4.57;;;;;;;21.86;100.00;93246.06;5019209;28;20037;-81
2023/09/29 10:19:11;;;;;;;10.98;4.40;;;;;;;21.85;100.00;93257.84;5018906;28;20033;-82
2023/09/29 10:21:48;;;;;;;7.57;4.50;;;;;;;22.17;100.00;93245.41;5018379;28;20149;-82
2023/09/29 10:24:27;;;;;;;8.65;4.15;;;;;;;21.79;100.00;93242.06;5018956;28;20041;-81
2023/09/29 10:26:53;;;;;;;9.07;4.68;;;;;;;21.85;100.00;93245.28;5018428;28;20449;-82
2023/09/29 10:29:37;;;;;;;7.15;4.55;;;;;;;21.68;100.00;93256.22;5018046;28;20141;-81
2023/09/29 10:32:13;;;;;;;7.78;4.78;;;;;;;21.55;100.00;93256.25;5017771;28;20095;-82
2023/09/29 10:34:40;;;;;;;9.20;4.32;;;;;;;21.81;100.00;93258.50;5014046;28;20042;-82
2023/09/29 10:37:06;;;;;;;6.82;4.03;;;;;;;22.19;100.00;93254.59;5013339;28;20114;-82
2023/09/29 10:39:31;;;;;;;8.50;4.60;;;;;;;22.42;100.00;93256.75;5018952;28;20093;-82
2023/09/29 10:41:58;;;;;;;8.25;4.40;;;;;;;22.38;100.00;93247.88;5019059;28;20021;-82
2023/09/29 10:44:26;;;;;;;8.60;4.78;;;;;;;22.50;100.00;93250.50;5018656;28;20038;-81
2023/09/29 10:46:52;;;;;;;8.07;4.70;;;;;;;22.31;100.00;93253.03;5033414;28;20362;-81
2023/09/29 10:49:17;;;;;;;9.40;4.40;;;;;;;22.33;100.00;93245.47;5018899;28;20125;-82
2023/09/29 10:51:43;;;;;;;10.02;4.82;;;;;;;21.93;100.00;93243.59;5029051;28;20106;-81
2023/09/29 10:54:09;;;;;;;7.68;4.75;;;;;;;21.89;100.00;93237.41;5017013;28;20054;-82
2023/09/29 10:56:36;;;;;;;8.70;5.32;;;;;;;21.91;100.00;93238.63;5018068;28;20058;-81
2023/09/29 10:59:07;;;;;;;9.50;5.22;;;;;;;21.85;100.00;93236.53;5018659;28;20092;-81
2023/09/29 11:01:36;;;;;;;7.10;4.78;;;;;;;21.96;100.00;93222.38;5017172;28;20045;-81
2023/09/29 11:04:05;;;;;;;7.30;4.97;;;;;;;22.14;100.00;93228.19;5018190;28;20084;-82
2023/09/29 11:06:43;;;;;;;8.00;4.80;;;;;;;21.55;100.00;93239.50;5019565;28;20513;-82
2023/09/29 11:09:15;;;;;;;7.63;4.20;;;;;;;21.88;100.00;93225.94;5018064;28;20034;-82
2023/09/29 11:11:41;;;;;;;7.10;4.13;;;;;;;21.91;100.00;93237.81;5018506;28;20065;-82
2023/09/29 11:14:06;;;;;;;7.43;4.45;;;;;;;21.78;100.00;93226.44;5017991;28;20042;-82
2023/09/29 11:16:32;;;;;;;7.95;4.43;;;;;;;21.83;100.00;93218.19;5017915;28;20486;-81
2023/09/29 11:19:12;;;;;;;8.07;4.47;;;;;;;21.92;100.00;93221.50;5027268;28;20049;-82
2023/09/29 11:21:40;;;;;;;9.18;4.80;;;;;;;22.23;100.00;93209.41;5041117;28;20043;-80